sensor_id;sensor_type;location;lat;lon;timestamp;P1;durP1;ratioP1;P2;durP2;ratioP2
73650;SDS011;61944;52.538;6.108;2022-10-16T05:03:34;7.85;;;2.95;;
73650;SDS011;61944;52.538;6.108;2022-10-16T05:05:59;4.47;;;2.97;;
73650;SDS011;61944;52.538;6.108;2022-10-16T05:08:25;4.70;;;3.13;;
73650;SDS011;61944;52.538;6.108;2022-10-16T05:10:50;6.57;;;3.10;;
73650;SDS011;61944;52.538;6.108;2022-10-16T05:13:16;7.97;;;3.08;;
73650;SDS011;61944;52.538;6.108;2022-10-16T05:15:41;8.15;;;2.88;;
73650;SDS011;61944;52.538;6.108;2022-10-16T05:18:07;9.07;;;2.67;;
73650;SDS011;61944;52.538;6.108;2022-10-16T05:20:33;5.45;;;2.80;;
73650;SDS011;61944;52.538;6.108;2022-10-16T05:22:59;6.22;;;2.70;;
73650;SDS011;61944;52.538;6.108;2022-10-16T05:25:24;8.52;;;2.72;;
73650;SDS011;61944;52.538;6.108;2022-10-16T05:27:49;6.82;;;2.63;;
73650;SDS011;61944;52.538;6.108;2022-10-16T05:30:15;6.30;;;3.08;;
73650;SDS011;61944;52.538;6.108;2022-10-16T05:32:45;2.15;;;1.88;;
73650;SDS011;61944;52.538;6.108;2022-10-16T05:35:11;4.90;;;3.28;;
73650;SDS011;61944;52.538;6.108;2022-10-16T05:37:37;4.07;;;2.75;;
73650;SDS011;61944;52.538;6.108;2022-10-16T05:40:02;6.72;;;2.70;;
73650;SDS011;61944;52.538;6.108;2022-10-16T05:42:29;4.72;;;3.08;;
73650;SDS011;61944;52.538;6.108;2022-10-16T05:44:54;6.28;;;2.25;;
73650;SDS011;61944;52.538;6.108;2022-10-16T05:47:20;4.03;;;2.63;;
73650;SDS011;61944;52.538;6.108;2022-10-16T05:49:46;7.28;;;2.72;;
73650;SDS011;61944;52.538;6.108;2022-10-16T05:52:11;5.65;;;2.40;;
73650;SDS011;61944;52.538;6.108;2022-10-16T05:54:36;5.72;;;2.42;;
73650;SDS011;61944;52.538;6.108;2022-10-16T05:57:01;4.70;;;2.15;;
73650;SDS011;61944;52.538;6.108;2022-10-16T05:59:27;4.25;;;2.40;;
73650;SDS011;61944;52.538;6.108;2022-10-16T06:01:52;4.22;;;2.60;;
73650;SDS011;61944;52.538;6.108;2022-10-16T06:04:18;5.55;;;2.60;;
73650;SDS011;61944;52.538;6.108;2022-10-16T06:06:43;8.80;;;4.30;;
73650;SDS011;61944;52.538;6.108;2022-10-16T06:09:09;4.10;;;2.50;;
73650;SDS011;61944;52.538;6.108;2022-10-16T06:11:34;3.92;;;2.45;;
73650;SDS011;61944;52.538;6.108;2022-10-16T06:14:01;7.88;;;2.50;;
73650;SDS011;61944;52.538;6.108;2022-10-16T06:16:31;4.70;;;2.42;;
73650;SDS011;61944;52.538;6.108;2022-10-16T06:18:57;4.80;;;2.67;;
73650;SDS011;61944;52.538;6.108;2022-10-16T06:21:24;4.85;;;2.50;;
73650;SDS011;61944;52.538;6.108;2022-10-16T06:23:50;7.95;;;2.90;;
73650;SDS011;61944;52.538;6.108;2022-10-16T06:26:17;4.70;;;2.67;;
73650;SDS011;61944;52.538;6.108;2022-10-16T06:28:45;6.95;;;2.10;;
73650;SDS011;61944;52.538;6.108;2022-10-16T06:31:11;4.80;;;2.05;;
73650;SDS011;61944;52.538;6.108;2022-10-16T06:33:37;5.40;;;2.47;;
73650;SDS011;61944;52.538;6.108;2022-10-16T06:36:04;5.63;;;2.75;;
73650;SDS011;61944;52.538;6.108;2022-10-16T06:38:32;6.35;;;2.15;;
73650;SDS011;61944;52.538;6.108;2022-10-16T06:40:57;6.78;;;3.42;;
73650;SDS011;61944;52.538;6.108;2022-10-16T06:43:23;5.72;;;2.33;;
73650;SDS011;61944;52.538;6.108;2022-10-16T06:45:56;3.53;;;2.50;;
73650;SDS011;61944;52.538;6.108;2022-10-16T06:48:22;8.77;;;3.05;;
73650;SDS011;61944;52.538;6.108;2022-10-16T06:51:04;6.78;;;2.72;;
73650;SDS011;61944;52.538;6.108;2022-10-16T06:53:34;7.25;;;2.17;;
73650;SDS011;61944;52.538;6.108;2022-10-16T06:56:10;3.35;;;2.45;;
73650;SDS011;61944;52.538;6.108;2022-10-16T06:58:38;9.75;;;2.70;;
73650;SDS011;61944;52.538;6.108;2022-10-16T07:01:04;5.57;;;2.33;;
73650;SDS011;61944;52.538;6.108;2022-10-16T07:03:30;7.20;;;2.67;;
73650;SDS011;61944;52.538;6.108;2022-10-16T07:05:55;6.95;;;3.05;;
73650;SDS011;61944;52.538;6.108;2022-10-16T07:08:21;8.13;;;2.47;;
73650;SDS011;61944;52.538;6.108;2022-10-16T07:10:46;8.88;;;2.75;;
73650;SDS011;61944;52.538;6.108;2022-10-16T07:13:12;3.60;;;2.42;;
73650;SDS011;61944;52.538;6.108;2022-10-16T07:15:40;6.32;;;1.77;;
73650;SDS011;61944;52.538;6.108;2022-10-16T07:18:06;1.77;;;1.30;;
73650;SDS011;61944;52.538;6.108;2022-10-16T07:20:32;3.45;;;1.30;;
73650;SDS011;61944;52.538;6.108;2022-10-16T07:22:57;4.78;;;1.25;;
73650;SDS011;61944;52.538;6.108;2022-10-16T07:25:22;2.15;;;1.13;;
73650;SDS011;61944;52.538;6.108;2022-10-16T07:27:48;4.43;;;1.30;;
73650;SDS011;61944;52.538;6.108;2022-10-16T07:30:13;3.47;;;1.52;;
73650;SDS011;61944;52.538;6.108;2022-10-16T07:32:38;4.93;;;2.00;;
73650;SDS011;61944;52.538;6.108;2022-10-16T07:35:04;5.55;;;2.75;;
73650;SDS011;61944;52.538;6.108;2022-10-16T07:37:30;3.25;;;2.17;;
73650;SDS011;61944;52.538;6.108;2022-10-16T07:39:55;5.53;;;2.38;;
73650;SDS011;61944;52.538;6.108;2022-10-16T07:42:20;6.57;;;2.53;;
73650;SDS011;61944;52.538;6.108;2022-10-16T07:44:45;7.18;;;3.15;;
73650;SDS011;61944;52.538;6.108;2022-10-16T07:47:11;6.85;;;2.42;;
73650;SDS011;61944;52.538;6.108;2022-10-16T07:49:36;8.65;;;2.72;;
73650;SDS011;61944;52.538;6.108;2022-10-16T07:52:02;7.30;;;3.45;;
73650;SDS011;61944;52.538;6.108;2022-10-16T07:54:27;5.13;;;2.28;;
73650;SDS011;61944;52.538;6.108;2022-10-16T07:56:52;3.38;;;2.35;;
73650;SDS011;61944;52.538;6.108;2022-10-16T07:59:18;7.95;;;3.40;;
73650;SDS011;61944;52.538;6.108;2022-10-16T08:01:43;5.05;;;2.22;;
73650;SDS011;61944;52.538;6.108;2022-10-16T08:04:09;5.70;;;3.20;;
73650;SDS011;61944;52.538;6.108;2022-10-16T08:06:35;7.07;;;3.08;;
73650;SDS011;61944;52.538;6.108;2022-10-16T08:09:02;9.25;;;3.92;;
73650;SDS011;61944;52.538;6.108;2022-10-16T08:11:28;9.77;;;2.95;;
73650;SDS011;61944;52.538;6.108;2022-10-16T08:13:53;8.20;;;3.50;;
73650;SDS011;61944;52.538;6.108;2022-10-16T08:16:19;10.35;;;3.33;;
73650;SDS011;61944;52.538;6.108;2022-10-16T08:18:44;5.97;;;3.83;;
73650;SDS011;61944;52.538;6.108;2022-10-16T08:21:15;6.50;;;3.08;;
73650;SDS011;61944;52.538;6.108;2022-10-16T08:23:41;4.32;;;3.10;;
73650;SDS011;61944;52.538;6.108;2022-10-16T08:26:09;6.93;;;3.25;;
73650;SDS011;61944;52.538;6.108;2022-10-16T08:28:35;4.63;;;2.80;;
73650;SDS011;61944;52.538;6.108;2022-10-16T08:31:04;6.82;;;3.15;;
73650;SDS011;61944;52.538;6.108;2022-10-16T08:36:00;3.35;;;2.42;;
73650;SDS011;61944;52.538;6.108;2022-10-16T08:38:26;5.75;;;2.50;;
73650;SDS011;61944;52.538;6.108;2022-10-16T08:40:51;10.82;;;3.45;;
73650;SDS011;61944;52.538;6.108;2022-10-16T08:48:48;9.40;;;2.90;;
73650;SDS011;61944;52.538;6.108;2022-10-16T08:53:52;6.65;;;2.92;;
73650;SDS011;61944;52.538;6.108;2022-10-16T08:56:20;8.80;;;2.95;;
73650;SDS011;61944;52.538;6.108;2022-10-16T08:58:46;6.75;;;2.45;;
73650;SDS011;61944;52.538;6.108;2022-10-16T09:01:13;8.77;;;3.05;;
73650;SDS011;61944;52.538;6.108;2022-10-16T09:19:44;4.57;;;2.03;;
73650;SDS011;61944;52.538;6.108;2022-10-16T09:22:16;6.85;;;2.33;;
73650;SDS011;61944;52.538;6.108;2022-10-16T09:24:45;7.30;;;1.98;;
73650;SDS011;61944;52.538;6.108;2022-10-16T09:27:11;6.88;;;2.25;;
73650;SDS011;61944;52.538;6.108;2022-10-16T09:29:38;8.15;;;3.08;;
73650;SDS011;61944;52.538;6.108;2022-10-16T09:32:14;7.88;;;2.20;;
73650;SDS011;61944;52.538;6.108;2022-10-16T09:34:47;5.55;;;1.92;;
73650;SDS011;61944;52.538;6.108;2022-10-16T09:37:17;6.55;;;2.35;;
73650;SDS011;61944;52.538;6.108;2022-10-16T09:39:48;7.05;;;1.88;;
73650;SDS011;61944;52.538;6.108;2022-10-16T09:42:25;12.50;;;2.30;;
73650;SDS011;61944;52.538;6.108;2022-10-16T09:44:56;14.43;;;3.25;;
73650;SDS011;61944;52.538;6.108;2022-10-16T09:47:28;9.68;;;1.90;;
73650;SDS011;61944;52.538;6.108;2022-10-16T09:52:27;14.63;;;2.87;;
73650;SDS011;61944;52.538;6.108;2022-10-16T09:54:54;7.20;;;2.15;;
73650;SDS011;61944;52.538;6.108;2022-10-16T09:57:21;11.68;;;2.50;;
73650;SDS011;61944;52.538;6.108;2022-10-16T09:59:47;9.40;;;2.45;;
73650;SDS011;61944;52.538;6.108;2022-10-16T10:02:15;8.77;;;1.98;;
73650;SDS011;61944;52.538;6.108;2022-10-16T10:04:45;9.50;;;3.28;;
73650;SDS011;61944;52.538;6.108;2022-10-16T10:07:18;11.43;;;2.83;;
73650;SDS011;61944;52.538;6.108;2022-10-16T10:09:49;10.35;;;2.30;;
73650;SDS011;61944;52.538;6.108;2022-10-16T10:12:19;7.53;;;2.03;;
73650;SDS011;61944;52.538;6.108;2022-10-16T10:14:47;10.07;;;3.03;;
73650;SDS011;61944;52.538;6.108;2022-10-16T10:17:16;15.75;;;3.20;;
73650;SDS011;61944;52.538;6.108;2022-10-16T10:46:35;17.33;;;3.05;;
73650;SDS011;61944;52.538;6.108;2022-10-16T10:52:10;5.95;;;1.90;;
73650;SDS011;61944;52.538;6.108;2022-10-16T11:01:13;11.95;;;1.88;;
73650;SDS011;61944;52.538;6.108;2022-10-16T11:06:55;11.60;;;2.20;;
73650;SDS011;61944;52.538;6.108;2022-10-16T11:09:28;9.05;;;2.30;;
73650;SDS011;61944;52.538;6.108;2022-10-16T11:11:59;10.02;;;2.08;;
73650;SDS011;61944;52.538;6.108;2022-10-16T11:19:43;15.25;;;3.88;;
73650;SDS011;61944;52.538;6.108;2022-10-16T11:24:53;6.38;;;2.00;;
73650;SDS011;61944;52.538;6.108;2022-10-16T11:27:33;16.02;;;3.42;;
73650;SDS011;61944;52.538;6.108;2022-10-16T11:30:13;17.50;;;2.83;;
73650;SDS011;61944;52.538;6.108;2022-10-16T11:35:44;13.38;;;2.67;;
73650;SDS011;61944;52.538;6.108;2022-10-16T11:38:24;15.63;;;2.75;;
73650;SDS011;61944;52.538;6.108;2022-10-16T11:40:54;8.18;;;2.85;;
73650;SDS011;61944;52.538;6.108;2022-10-16T11:43:30;11.80;;;3.13;;
73650;SDS011;61944;52.538;6.108;2022-10-16T11:46:04;7.03;;;2.40;;
73650;SDS011;61944;52.538;6.108;2022-10-16T11:51:53;7.95;;;2.42;;
73650;SDS011;61944;52.538;6.108;2022-10-16T11:56:54;13.55;;;3.03;;
73650;SDS011;61944;52.538;6.108;2022-10-16T12:04:45;12.13;;;2.22;;
73650;SDS011;61944;52.538;6.108;2022-10-16T12:09:47;7.53;;;1.75;;
73650;SDS011;61944;52.538;6.108;2022-10-16T12:15:24;12.50;;;2.38;;
73650;SDS011;61944;52.538;6.108;2022-10-16T12:17:53;12.27;;;2.97;;
73650;SDS011;61944;52.538;6.108;2022-10-16T12:22:55;6.57;;;2.33;;
73650;SDS011;61944;52.538;6.108;2022-10-16T12:25:33;12.85;;;2.45;;
73650;SDS011;61944;52.538;6.108;2022-10-16T12:30:37;11.60;;;2.53;;
73650;SDS011;61944;52.538;6.108;2022-10-16T12:33:04;16.38;;;2.75;;
73650;SDS011;61944;52.538;6.108;2022-10-16T12:35:33;7.55;;;1.73;;
73650;SDS011;61944;52.538;6.108;2022-10-16T12:38:12;10.57;;;2.65;;
73650;SDS011;61944;52.538;6.108;2022-10-16T12:40:42;8.13;;;2.42;;
73650;SDS011;61944;52.538;6.108;2022-10-16T12:46:03;10.20;;;2.40;;
73650;SDS011;61944;52.538;6.108;2022-10-16T12:48:30;9.55;;;3.58;;
73650;SDS011;61944;52.538;6.108;2022-10-16T12:50:56;9.98;;;2.30;;
73650;SDS011;61944;52.538;6.108;2022-10-16T12:53:23;9.70;;;2.28;;
73650;SDS011;61944;52.538;6.108;2022-10-16T13:01:06;12.52;;;3.42;;
73650;SDS011;61944;52.538;6.108;2022-10-16T13:03:58;10.30;;;2.35;;
73650;SDS011;61944;52.538;6.108;2022-10-16T13:06:41;7.85;;;1.90;;
73650;SDS011;61944;52.538;6.108;2022-10-16T13:09:29;9.25;;;2.22;;
73650;SDS011;61944;52.538;6.108;2022-10-16T13:12:07;9.80;;;2.78;;
73650;SDS011;61944;52.538;6.108;2022-10-16T13:14:54;14.82;;;3.17;;
73650;SDS011;61944;52.538;6.108;2022-10-16T13:22:48;17.13;;;5.57;;
73650;SDS011;61944;52.538;6.108;2022-10-16T13:25:38;16.88;;;3.67;;
73650;SDS011;61944;52.538;6.108;2022-10-16T13:28:11;11.25;;;2.53;;
73650;SDS011;61944;52.538;6.108;2022-10-16T13:30:39;10.80;;;2.72;;
73650;SDS011;61944;52.538;6.108;2022-10-16T13:35:35;9.57;;;3.15;;
73650;SDS011;61944;52.538;6.108;2022-10-16T13:38:14;8.90;;;2.90;;
73650;SDS011;61944;52.538;6.108;2022-10-16T13:40:52;11.93;;;2.50;;
73650;SDS011;61944;52.538;6.108;2022-10-16T13:43:19;11.82;;;2.20;;
73650;SDS011;61944;52.538;6.108;2022-10-16T13:45:55;10.13;;;2.53;;
73650;SDS011;61944;52.538;6.108;2022-10-16T13:48:22;11.55;;;2.50;;
73650;SDS011;61944;52.538;6.108;2022-10-16T13:50:57;11.23;;;3.50;;
73650;SDS011;61944;52.538;6.108;2022-10-16T13:53:42;5.53;;;2.33;;
73650;SDS011;61944;52.538;6.108;2022-10-16T13:56:15;5.85;;;2.30;;
73650;SDS011;61944;52.538;6.108;2022-10-16T13:58:43;5.43;;;2.10;;
73650;SDS011;61944;52.538;6.108;2022-10-16T14:03:44;12.20;;;2.83;;
73650;SDS011;61944;52.538;6.108;2022-10-16T14:06:12;7.15;;;2.60;;
73650;SDS011;61944;52.538;6.108;2022-10-16T14:11:27;9.35;;;2.00;;
73650;SDS011;61944;52.538;6.108;2022-10-16T14:13:53;6.78;;;2.00;;
73650;SDS011;61944;52.538;6.108;2022-10-16T14:16:29;7.55;;;2.35;;
73650;SDS011;61944;52.538;6.108;2022-10-16T14:19:00;10.60;;;2.53;;
73650;SDS011;61944;52.538;6.108;2022-10-16T14:21:28;6.13;;;2.35;;
73650;SDS011;61944;52.538;6.108;2022-10-16T14:23:54;6.45;;;2.15;;
73650;SDS011;61944;52.538;6.108;2022-10-16T14:26:22;7.10;;;1.90;;
73650;SDS011;61944;52.538;6.108;2022-10-16T14:28:51;7.43;;;2.15;;
73650;SDS011;61944;52.538;6.108;2022-10-16T14:31:30;17.58;;;3.90;;
73650;SDS011;61944;52.538;6.108;2022-10-16T14:33:58;8.60;;;2.78;;
73650;SDS011;61944;52.538;6.108;2022-10-16T14:36:24;11.75;;;2.72;;
73650;SDS011;61944;52.538;6.108;2022-10-16T14:39:02;11.10;;;2.25;;
73650;SDS011;61944;52.538;6.108;2022-10-16T14:41:40;7.20;;;2.05;;
73650;SDS011;61944;52.538;6.108;2022-10-16T14:44:11;7.22;;;3.15;;
73650;SDS011;61944;52.538;6.108;2022-10-16T14:46:38;5.57;;;1.65;;
73650;SDS011;61944;52.538;6.108;2022-10-16T14:51:34;8.57;;;2.20;;
73650;SDS011;61944;52.538;6.108;2022-10-16T14:54:00;8.40;;;2.70;;
73650;SDS011;61944;52.538;6.108;2022-10-16T14:56:30;11.45;;;2.42;;
73650;SDS011;61944;52.538;6.108;2022-10-16T14:59:07;7.60;;;2.15;;
73650;SDS011;61944;52.538;6.108;2022-10-16T15:01:38;8.15;;;2.17;;
73650;SDS011;61944;52.538;6.108;2022-10-16T15:04:03;9.77;;;2.50;;
73650;SDS011;61944;52.538;6.108;2022-10-16T15:06:28;11.23;;;2.97;;
73650;SDS011;61944;52.538;6.108;2022-10-16T15:08:54;7.80;;;2.33;;
73650;SDS011;61944;52.538;6.108;2022-10-16T15:11:19;5.95;;;2.30;;
73650;SDS011;61944;52.538;6.108;2022-10-16T15:13:45;9.43;;;3.15;;
73650;SDS011;61944;52.538;6.108;2022-10-16T15:16:11;10.10;;;3.05;;
73650;SDS011;61944;52.538;6.108;2022-10-16T15:18:38;10.65;;;2.85;;
73650;SDS011;61944;52.538;6.108;2022-10-16T15:21:04;8.07;;;2.50;;
73650;SDS011;61944;52.538;6.108;2022-10-16T15:23:29;6.75;;;2.30;;
73650;SDS011;61944;52.538;6.108;2022-10-16T15:25:55;9.98;;;2.50;;
73650;SDS011;61944;52.538;6.108;2022-10-16T15:28:22;13.75;;;2.70;;
73650;SDS011;61944;52.538;6.108;2022-10-16T15:30:49;13.27;;;2.60;;
73650;SDS011;61944;52.538;6.108;2022-10-16T15:33:17;5.70;;;2.38;;
73650;SDS011;61944;52.538;6.108;2022-10-16T15:35:47;8.75;;;2.38;;
73650;SDS011;61944;52.538;6.108;2022-10-16T15:38:14;6.93;;;2.33;;
73650;SDS011;61944;52.538;6.108;2022-10-16T15:40:40;18.73;;;3.80;;
73650;SDS011;61944;52.538;6.108;2022-10-16T15:43:06;7.85;;;2.47;;
73650;SDS011;61944;52.538;6.108;2022-10-16T15:45:31;9.45;;;2.97;;
73650;SDS011;61944;52.538;6.108;2022-10-16T15:47:57;9.10;;;2.70;;
73650;SDS011;61944;52.538;6.108;2022-10-16T15:50:22;7.40;;;3.42;;
73650;SDS011;61944;52.538;6.108;2022-10-16T15:52:48;8.48;;;2.53;;
73650;SDS011;61944;52.538;6.108;2022-10-16T15:55:15;10.48;;;2.67;;
73650;SDS011;61944;52.538;6.108;2022-10-16T15:57:40;8.52;;;3.17;;
73650;SDS011;61944;52.538;6.108;2022-10-16T16:00:09;10.00;;;3.45;;
73650;SDS011;61944;52.538;6.108;2022-10-16T16:02:38;16.60;;;3.75;;
73650;SDS011;61944;52.538;6.108;2022-10-16T16:05:04;9.75;;;3.20;;
73650;SDS011;61944;52.538;6.108;2022-10-16T16:07:34;12.15;;;2.42;;
73650;SDS011;61944;52.538;6.108;2022-10-16T16:10:00;7.97;;;2.63;;
73650;SDS011;61944;52.538;6.108;2022-10-16T16:12:27;11.43;;;4.22;;
73650;SDS011;61944;52.538;6.108;2022-10-16T16:14:52;6.72;;;3.15;;
73650;SDS011;61944;52.538;6.108;2022-10-16T16:17:18;8.90;;;3.80;;
73650;SDS011;61944;52.538;6.108;2022-10-16T16:19:43;11.40;;;3.20;;
73650;SDS011;61944;52.538;6.108;2022-10-16T16:22:08;7.65;;;4.43;;
73650;SDS011;61944;52.538;6.108;2022-10-16T16:24:34;7.85;;;2.88;;
73650;SDS011;61944;52.538;6.108;2022-10-16T16:26:59;5.65;;;3.35;;
73650;SDS011;61944;52.538;6.108;2022-10-16T16:29:25;5.63;;;3.08;;
73650;SDS011;61944;52.538;6.108;2022-10-16T16:31:50;9.10;;;4.15;;
73650;SDS011;61944;52.538;6.108;2022-10-16T16:34:21;13.00;;;4.50;;
73650;SDS011;61944;52.538;6.108;2022-10-16T16:36:48;11.45;;;5.03;;
73650;SDS011;61944;52.538;6.108;2022-10-16T16:39:13;15.57;;;6.32;;
73650;SDS011;61944;52.538;6.108;2022-10-16T16:41:38;11.35;;;6.60;;
73650;SDS011;61944;52.538;6.108;2022-10-16T16:44:05;16.80;;;6.10;;
73650;SDS011;61944;52.538;6.108;2022-10-16T16:46:32;47.45;;;9.00;;
73650;SDS011;61944;52.538;6.108;2022-10-16T16:48:59;23.50;;;5.72;;
73650;SDS011;61944;52.538;6.108;2022-10-16T16:51:24;22.48;;;6.25;;
73650;SDS011;61944;52.538;6.108;2022-10-16T16:53:50;19.42;;;4.90;;
73650;SDS011;61944;52.538;6.108;2022-10-16T16:56:17;19.88;;;4.85;;
73650;SDS011;61944;52.538;6.108;2022-10-16T16:58:47;17.63;;;5.65;;
73650;SDS011;61944;52.538;6.108;2022-10-16T17:01:13;19.17;;;4.78;;
73650;SDS011;61944;52.538;6.108;2022-10-16T17:03:41;13.48;;;4.78;;
73650;SDS011;61944;52.538;6.108;2022-10-16T17:06:11;20.30;;;5.40;;
73650;SDS011;61944;52.538;6.108;2022-10-16T17:08:38;15.00;;;5.18;;
73650;SDS011;61944;52.538;6.108;2022-10-16T17:11:04;10.82;;;5.13;;
73650;SDS011;61944;52.538;6.108;2022-10-16T17:13:31;10.35;;;5.10;;
73650;SDS011;61944;52.538;6.108;2022-10-16T17:16:02;9.40;;;5.20;;
73650;SDS011;61944;52.538;6.108;2022-10-16T17:18:28;18.33;;;5.22;;
73650;SDS011;61944;52.538;6.108;2022-10-16T17:20:54;13.52;;;4.88;;
73650;SDS011;61944;52.538;6.108;2022-10-16T17:23:19;11.73;;;4.85;;
73650;SDS011;61944;52.538;6.108;2022-10-16T17:25:45;13.98;;;4.95;;
73650;SDS011;61944;52.538;6.108;2022-10-16T17:28:11;12.15;;;5.55;;
73650;SDS011;61944;52.538;6.108;2022-10-16T17:30:38;9.90;;;5.40;;
73650;SDS011;61944;52.538;6.108;2022-10-16T17:33:07;8.40;;;3.97;;
73650;SDS011;61944;52.538;6.108;2022-10-16T17:35:37;9.13;;;4.65;;
73650;SDS011;61944;52.538;6.108;2022-10-16T17:38:10;21.38;;;5.05;;
73650;SDS011;61944;52.538;6.108;2022-10-16T17:40:36;11.85;;;4.95;;
73650;SDS011;61944;52.538;6.108;2022-10-16T17:43:02;12.45;;;5.18;;
73650;SDS011;61944;52.538;6.108;2022-10-16T17:45:28;9.68;;;5.80;;
73650;SDS011;61944;52.538;6.108;2022-10-16T17:47:54;10.70;;;5.60;;
73650;SDS011;61944;52.538;6.108;2022-10-16T17:50:19;15.15;;;5.63;;
73650;SDS011;61944;52.538;6.108;2022-10-16T17:52:44;11.75;;;5.55;;
73650;SDS011;61944;52.538;6.108;2022-10-16T17:55:10;8.27;;;5.53;;
73650;SDS011;61944;52.538;6.108;2022-10-16T17:57:36;10.15;;;5.88;;
73650;SDS011;61944;52.538;6.108;2022-10-16T18:00:02;9.50;;;7.40;;
73650;SDS011;61944;52.538;6.108;2022-10-16T18:02:29;12.43;;;6.30;;
73650;SDS011;61944;52.538;6.108;2022-10-16T18:04:54;10.60;;;5.57;;
73650;SDS011;61944;52.538;6.108;2022-10-16T18:07:20;10.40;;;6.20;;
73650;SDS011;61944;52.538;6.108;2022-10-16T18:09:46;9.30;;;6.30;;
73650;SDS011;61944;52.538;6.108;2022-10-16T18:12:11;10.00;;;5.53;;
73650;SDS011;61944;52.538;6.108;2022-10-16T18:14:37;14.32;;;6.38;;
73650;SDS011;61944;52.538;6.108;2022-10-16T18:17:03;12.55;;;6.68;;
73650;SDS011;61944;52.538;6.108;2022-10-16T18:19:28;10.18;;;5.38;;
73650;SDS011;61944;52.538;6.108;2022-10-16T18:21:53;11.70;;;7.03;;
73650;SDS011;61944;52.538;6.108;2022-10-16T18:24:22;14.95;;;5.43;;
73650;SDS011;61944;52.538;6.108;2022-10-16T18:26:49;14.48;;;5.97;;
73650;SDS011;61944;52.538;6.108;2022-10-16T18:29:20;15.10;;;5.95;;
73650;SDS011;61944;52.538;6.108;2022-10-16T18:31:45;13.93;;;7.03;;
73650;SDS011;61944;52.538;6.108;2022-10-16T18:34:11;10.57;;;6.38;;
73650;SDS011;61944;52.538;6.108;2022-10-16T18:36:36;11.77;;;5.65;;
73650;SDS011;61944;52.538;6.108;2022-10-16T18:39:06;18.17;;;6.30;;
73650;SDS011;61944;52.538;6.108;2022-10-16T18:41:37;11.65;;;6.40;;
73650;SDS011;61944;52.538;6.108;2022-10-16T18:44:04;12.68;;;6.10;;
73650;SDS011;61944;52.538;6.108;2022-10-16T18:46:30;16.95;;;7.30;;
73650;SDS011;61944;52.538;6.108;2022-10-16T18:48:56;13.60;;;8.00;;
73650;SDS011;61944;52.538;6.108;2022-10-16T18:51:23;10.60;;;6.70;;
73650;SDS011;61944;52.538;6.108;2022-10-16T18:53:51;15.85;;;7.88;;
73650;SDS011;61944;52.538;6.108;2022-10-16T18:56:19;10.27;;;7.25;;
73650;SDS011;61944;52.538;6.108;2022-10-16T18:58:46;12.43;;;6.57;;
73650;SDS011;61944;52.538;6.108;2022-10-16T19:01:16;16.30;;;8.68;;
73650;SDS011;61944;52.538;6.108;2022-10-16T19:03:47;19.83;;;8.27;;
73650;SDS011;61944;52.538;6.108;2022-10-16T19:06:14;17.88;;;9.10;;
73650;SDS011;61944;52.538;6.108;2022-10-16T19:08:40;10.98;;;6.85;;
73650;SDS011;61944;52.538;6.108;2022-10-16T19:13:33;11.32;;;6.20;;
73650;SDS011;61944;52.538;6.108;2022-10-16T19:15:59;12.32;;;7.13;;
73650;SDS011;61944;52.538;6.108;2022-10-16T19:18:25;10.52;;;6.13;;
73650;SDS011;61944;52.538;6.108;2022-10-16T19:20:51;15.15;;;7.35;;
73650;SDS011;61944;52.538;6.108;2022-10-16T19:23:17;13.20;;;6.13;;
73650;SDS011;61944;52.538;6.108;2022-10-16T19:25:42;10.98;;;5.93;;
73650;SDS011;61944;52.538;6.108;2022-10-16T19:28:08;9.57;;;5.25;;
73650;SDS011;61944;52.538;6.108;2022-10-16T19:30:37;12.25;;;5.45;;
73650;SDS011;61944;52.538;6.108;2022-10-16T19:33:04;12.88;;;5.80;;
73650;SDS011;61944;52.538;6.108;2022-10-16T19:35:30;11.30;;;5.45;;
73650;SDS011;61944;52.538;6.108;2022-10-16T19:37:56;13.38;;;5.53;;
73650;SDS011;61944;52.538;6.108;2022-10-16T19:40:22;11.27;;;6.20;;
73650;SDS011;61944;52.538;6.108;2022-10-16T19:42:47;9.10;;;6.20;;
73650;SDS011;61944;52.538;6.108;2022-10-16T19:45:13;10.88;;;6.75;;
73650;SDS011;61944;52.538;6.108;2022-10-16T19:47:38;8.65;;;6.40;;
73650;SDS011;61944;52.538;6.108;2022-10-16T19:50:04;12.95;;;7.22;;
73650;SDS011;61944;52.538;6.108;2022-10-16T19:52:30;17.08;;;9.35;;
73650;SDS011;61944;52.538;6.108;2022-10-16T19:54:56;18.27;;;8.85;;
73650;SDS011;61944;52.538;6.108;2022-10-16T19:57:22;17.13;;;9.52;;
73650;SDS011;61944;52.538;6.108;2022-10-16T19:59:51;12.18;;;8.00;;
73650;SDS011;61944;52.538;6.108;2022-10-16T20:02:17;14.85;;;8.70;;
73650;SDS011;61944;52.538;6.108;2022-10-16T20:04:43;15.07;;;7.47;;
73650;SDS011;61944;52.538;6.108;2022-10-16T20:07:08;14.38;;;8.20;;
73650;SDS011;61944;52.538;6.108;2022-10-16T20:09:33;10.52;;;6.90;;
73650;SDS011;61944;52.538;6.108;2022-10-16T20:11:59;8.85;;;6.63;;
73650;SDS011;61944;52.538;6.108;2022-10-16T20:14:25;12.48;;;7.90;;
73650;SDS011;61944;52.538;6.108;2022-10-16T20:16:51;10.07;;;6.60;;
73650;SDS011;61944;52.538;6.108;2022-10-16T20:19:17;11.18;;;7.00;;
73650;SDS011;61944;52.538;6.108;2022-10-16T20:21:43;16.45;;;7.15;;
73650;SDS011;61944;52.538;6.108;2022-10-16T20:24:11;11.65;;;6.20;;
73650;SDS011;61944;52.538;6.108;2022-10-16T20:26:36;13.70;;;6.57;;
73650;SDS011;61944;52.538;6.108;2022-10-16T20:29:03;10.90;;;5.90;;
73650;SDS011;61944;52.538;6.108;2022-10-16T20:31:29;15.63;;;6.30;;
73650;SDS011;61944;52.538;6.108;2022-10-16T20:33:57;11.23;;;6.00;;
73650;SDS011;61944;52.538;6.108;2022-10-16T20:36:25;9.60;;;5.50;;
73650;SDS011;61944;52.538;6.108;2022-10-16T20:38:55;13.63;;;6.82;;
73650;SDS011;61944;52.538;6.108;2022-10-16T20:41:21;10.57;;;5.53;;
73650;SDS011;61944;52.538;6.108;2022-10-16T20:43:47;10.27;;;5.18;;
73650;SDS011;61944;52.538;6.108;2022-10-16T20:46:14;11.30;;;4.97;;
73650;SDS011;61944;52.538;6.108;2022-10-16T20:48:44;13.00;;;5.00;;
73650;SDS011;61944;52.538;6.108;2022-10-16T20:51:18;8.98;;;5.35;;
73650;SDS011;61944;52.538;6.108;2022-10-16T20:53:45;12.10;;;5.65;;
73650;SDS011;61944;52.538;6.108;2022-10-16T20:56:12;16.95;;;7.00;;
73650;SDS011;61944;52.538;6.108;2022-10-16T20:58:40;13.68;;;5.30;;
73650;SDS011;61944;52.538;6.108;2022-10-16T21:01:16;11.05;;;5.57;;
73650;SDS011;61944;52.538;6.108;2022-10-16T21:03:50;12.45;;;6.45;;
73650;SDS011;61944;52.538;6.108;2022-10-16T21:06:23;12.63;;;7.60;;
73650;SDS011;61944;52.538;6.108;2022-10-16T21:08:48;10.80;;;5.20;;
73650;SDS011;61944;52.538;6.108;2022-10-16T21:11:47;12.80;;;5.40;;
73650;SDS011;61944;52.538;6.108;2022-10-16T21:14:06;7.68;;;4.90;;
73650;SDS011;61944;52.538;6.108;2022-10-16T21:16:32;13.45;;;5.78;;
73650;SDS011;61944;52.538;6.108;2022-10-16T21:18:58;14.85;;;6.20;;
73650;SDS011;61944;52.538;6.108;2022-10-16T21:21:29;9.02;;;4.78;;
73650;SDS011;61944;52.538;6.108;2022-10-16T21:23:56;11.40;;;5.38;;
73650;SDS011;61944;52.538;6.108;2022-10-16T21:26:23;16.65;;;6.00;;
73650;SDS011;61944;52.538;6.108;2022-10-16T21:31:20;11.57;;;4.55;;
73650;SDS011;61944;52.538;6.108;2022-10-16T21:33:46;12.90;;;5.30;;
73650;SDS011;61944;52.538;6.108;2022-10-16T21:36:16;8.77;;;5.40;;
73650;SDS011;61944;52.538;6.108;2022-10-16T21:38:44;9.33;;;4.80;;
73650;SDS011;61944;52.538;6.108;2022-10-16T21:43:45;9.10;;;4.82;;
73650;SDS011;61944;52.538;6.108;2022-10-16T21:46:11;20.05;;;6.40;;
73650;SDS011;61944;52.538;6.108;2022-10-16T21:48:37;16.55;;;6.10;;
73650;SDS011;61944;52.538;6.108;2022-10-16T21:51:03;18.33;;;6.00;;
73650;SDS011;61944;52.538;6.108;2022-10-16T21:53:29;14.25;;;6.85;;
73650;SDS011;61944;52.538;6.108;2022-10-16T21:55:54;9.10;;;5.47;;
73650;SDS011;61944;52.538;6.108;2022-10-16T21:58:19;12.07;;;5.10;;
73650;SDS011;61944;52.538;6.108;2022-10-16T22:00:45;16.73;;;6.75;;